sensor_id;sensor_type;location;lat;lon;timestamp;pressure;altitude;pressure_sealevel;temperature;humidity
7888;BME280;3989;48.810;9.208;2023-11-21T00:00:36;98127.44;;;7.12;100.00
7888;BME280;3989;48.810;9.208;2023-11-21T00:03:02;98223.56;;;7.69;100.00
7888;BME280;3989;48.810;9.208;2023-11-21T00:05:29;98211.31;;;7.68;100.00
7888;BME280;3989;48.810;9.208;2023-11-21T00:07:56;98152.91;;;7.29;100.00
7888;BME280;3989;48.810;9.208;2023-11-21T00:10:22;98218.59;;;7.66;100.00
7888;BME280;3989;48.810;9.208;2023-11-21T00:12:50;98204.69;;;7.56;100.00
7888;BME280;3989;48.810;9.208;2023-11-21T00:15:20;98172.69;;;7.27;100.00
7888;BME280;3989;48.810;9.208;2023-11-21T00:17:47;98201.13;;;7.49;100.00
7888;BME280;3989;48.810;9.208;2023-11-21T00:20:13;98192.31;;;7.49;100.00
7888;BME280;3989;48.810;9.208;2023-11-21T00:22:40;98188.81;;;7.48;100.00
7888;BME280;3989;48.810;9.208;2023-11-21T00:25:07;98201.81;;;7.66;100.00
7888;BME280;3989;48.810;9.208;2023-11-21T00:27:34;98132.88;;;7.27;100.00
7888;BME280;3989;48.810;9.208;2023-11-21T01:00:11;98150.94;;;7.62;100.00
7888;BME280;3989;48.810;9.208;2023-11-21T01:02:39;98154.38;;;7.63;100.00
7888;BME280;3989;48.810;9.208;2023-11-21T01:05:06;98204.00;;;7.93;100.00
7888;BME280;3989;48.810;9.208;2023-11-21T01:07:34;98204.47;;;7.97;100.00
7888;BME280;3989;48.810;9.208;2023-11-21T01:10:02;98182.81;;;7.85;100.00
7888;BME280;3989;48.810;9.208;2023-11-21T01:12:31;98202.81;;;7.96;100.00
7888;BME280;3989;48.810;9.208;2023-11-21T01:14:57;98200.97;;;8.04;100.00
7888;BME280;3989;48.810;9.208;2023-11-21T01:17:26;98168.94;;;7.75;100.00
7888;BME280;3989;48.810;9.208;2023-11-21T01:19:55;98140.31;;;7.62;100.00
7888;BME280;3989;48.810;9.208;2023-11-21T01:22:23;98208.25;;;8.02;100.00
7888;BME280;3989;48.810;9.208;2023-11-21T01:24:51;98181.44;;;7.89;100.00
7888;BME280;3989;48.810;9.208;2023-11-21T01:27:18;98206.75;;;8.08;100.00
7888;BME280;3989;48.810;9.208;2023-11-21T01:29:44;98215.16;;;8.11;100.00
7888;BME280;3989;48.810;9.208;2023-11-21T01:32:11;98160.78;;;7.76;100.00
7888;BME280;3989;48.810;9.208;2023-11-21T01:34:39;98198.47;;;8.03;100.00
7888;BME280;3989;48.810;9.208;2023-11-21T01:37:06;98202.47;;;7.99;100.00
7888;BME280;3989;48.810;9.208;2023-11-21T01:39:32;98201.63;;;7.98;100.00
7888;BME280;3989;48.810;9.208;2023-11-21T01:41:59;98186.13;;;7.87;100.00
7888;BME280;3989;48.810;9.208;2023-11-21T01:44:26;98170.91;;;7.73;100.00
7888;BME280;3989;48.810;9.208;2023-11-21T01:46:53;98206.31;;;7.96;100.00
7888;BME280;3989;48.810;9.208;2023-11-21T01:49:20;98175.53;;;7.79;100.00
7888;BME280;3989;48.810;9.208;2023-11-21T01:51:49;98189.06;;;7.92;100.00
7888;BME280;3989;48.810;9.208;2023-11-21T01:54:16;98185.59;;;7.91;100.00
7888;BME280;3989;48.810;9.208;2023-11-21T01:56:44;98178.97;;;7.87;100.00
7888;BME280;3989;48.810;9.208;2023-11-21T01:59:14;98188.41;;;7.90;100.00
7888;BME280;3989;48.810;9.208;2023-11-21T02:01:44;98186.13;;;7.87;100.00
7888;BME280;3989;48.810;9.208;2023-11-21T02:04:12;98195.75;;;7.88;100.00
7888;BME280;3989;48.810;9.208;2023-11-21T02:06:38;98193.59;;;7.83;100.00
7888;BME280;3989;48.810;9.208;2023-11-21T02:09:06;98197.69;;;7.94;100.00
7888;BME280;3989;48.810;9.208;2023-11-21T02:11:34;98200.88;;;7.89;100.00
7888;BME280;3989;48.810;9.208;2023-11-21T02:14:01;98210.84;;;7.87;100.00
7888;BME280;3989;48.810;9.208;2023-11-21T02:16:28;98195.56;;;7.89;100.00
7888;BME280;3989;48.810;9.208;2023-11-21T02:18:57;98174.59;;;7.72;100.00
7888;BME280;3989;48.810;9.208;2023-11-21T02:21:24;98162.59;;;7.76;100.00
7888;BME280;3989;48.810;9.208;2023-11-21T02:23:53;98198.34;;;7.96;100.00
7888;BME280;3989;48.810;9.208;2023-11-21T02:26:20;98187.91;;;7.95;100.00
7888;BME280;3989;48.810;9.208;2023-11-21T02:28:47;98191.31;;;8.03;100.00
7888;BME280;3989;48.810;9.208;2023-11-21T02:31:14;98173.13;;;7.92;100.00
7888;BME280;3989;48.810;9.208;2023-11-21T02:33:41;98155.78;;;7.81;100.00
7888;BME280;3989;48.810;9.208;2023-11-21T02:36:09;98183.81;;;8.07;100.00
7888;BME280;3989;48.810;9.208;2023-11-21T02:41:58;98162.44;;;8.00;100.00
7888;BME280;3989;48.810;9.208;2023-11-21T02:47:47;98182.47;;;8.11;100.00
7888;BME280;3989;48.810;9.208;2023-11-21T02:50:14;98178.78;;;8.12;100.00
7888;BME280;3989;48.810;9.208;2023-11-21T02:52:41;98171.00;;;8.10;100.00
7888;BME280;3989;48.810;9.208;2023-11-21T02:55:08;98150.22;;;7.91;100.00
7888;BME280;3989;48.810;9.208;2023-11-21T02:57:36;98179.47;;;8.14;100.00
7888;BME280;3989;48.810;9.208;2023-11-21T03:00:03;98137.47;;;7.86;100.00
7888;BME280;3989;48.810;9.208;2023-11-21T03:02:32;98144.72;;;7.92;100.00
7888;BME280;3989;48.810;9.208;2023-11-21T03:05:04;98144.38;;;7.96;100.00
7888;BME280;3989;48.810;9.208;2023-11-21T03:07:31;98170.66;;;8.13;100.00
7888;BME280;3989;48.810;9.208;2023-11-21T03:09:58;98170.69;;;8.05;100.00
7888;BME280;3989;48.810;9.208;2023-11-21T03:12:24;98173.44;;;7.97;100.00
7888;BME280;3989;48.810;9.208;2023-11-21T03:14:52;98158.59;;;7.80;100.00
7888;BME280;3989;48.810;9.208;2023-11-21T03:17:19;98179.34;;;7.84;100.00
7888;BME280;3989;48.810;9.208;2023-11-21T03:19:46;98178.19;;;7.79;100.00
7888;BME280;3989;48.810;9.208;2023-11-21T03:22:13;98188.94;;;7.85;100.00
7888;BME280;3989;48.810;9.208;2023-11-21T03:24:39;98183.81;;;7.84;100.00
7888;BME280;3989;48.810;9.208;2023-11-21T03:27:06;98167.78;;;7.69;100.00
7888;BME280;3989;48.810;9.208;2023-11-21T03:29:33;98182.22;;;7.75;100.00
7888;BME280;3989;48.810;9.208;2023-11-21T03:32:01;98176.78;;;7.68;100.00
7888;BME280;3989;48.810;9.208;2023-11-21T03:34:28;98195.16;;;7.78;100.00
7888;BME280;3989;48.810;9.208;2023-11-21T03:36:55;98196.63;;;7.80;100.00
7888;BME280;3989;48.810;9.208;2023-11-21T03:39:22;98162.19;;;7.64;100.00
7888;BME280;3989;48.810;9.208;2023-11-21T03:41:49;98187.47;;;7.83;100.00
7888;BME280;3989;48.810;9.208;2023-11-21T03:44:17;98187.31;;;7.84;100.00
7888;BME280;3989;48.810;9.208;2023-11-21T03:46:44;98186.28;;;7.85;100.00
7888;BME280;3989;48.810;9.208;2023-11-21T03:49:12;98175.25;;;7.74;100.00
7888;BME280;3989;48.810;9.208;2023-11-21T03:51:38;98196.38;;;7.90;100.00
7888;BME280;3989;48.810;9.208;2023-11-21T03:54:05;98170.88;;;7.81;100.00
7888;BME280;3989;48.810;9.208;2023-11-21T03:56:32;98201.47;;;8.00;100.00
7888;BME280;3989;48.810;9.208;2023-11-21T03:58:59;98101.94;;;7.42;100.00
7888;BME280;3989;48.810;9.208;2023-11-21T04:01:25;98116.88;;;7.43;100.00
7888;BME280;3989;48.810;9.208;2023-11-21T04:03:52;98197.63;;;8.02;100.00
7888;BME280;3989;48.810;9.208;2023-11-21T04:06:20;98200.13;;;8.04;100.00
7888;BME280;3989;48.810;9.208;2023-11-21T04:08:46;98178.28;;;7.93;100.00
7888;BME280;3989;48.810;9.208;2023-11-21T04:11:13;98103.03;;;7.48;100.00
7888;BME280;3989;48.810;9.208;2023-11-21T04:13:41;98201.63;;;7.98;100.00
7888;BME280;3989;48.810;9.208;2023-11-21T04:16:08;98205.13;;;7.99;100.00
7888;BME280;3989;48.810;9.208;2023-11-21T04:18:35;98144.78;;;7.62;100.00
7888;BME280;3989;48.810;9.208;2023-11-21T04:21:02;98189.97;;;7.84;100.00
7888;BME280;3989;48.810;9.208;2023-11-21T04:23:30;98149.78;;;7.57;100.00
7888;BME280;3989;48.810;9.208;2023-11-21T04:25:57;98167.03;;;7.61;100.00
7888;BME280;3989;48.810;9.208;2023-11-21T04:28:24;98203.75;;;7.80;100.00
7888;BME280;3989;48.810;9.208;2023-11-21T04:30:51;98165.56;;;7.50;100.00
7888;BME280;3989;48.810;9.208;2023-11-21T04:33:18;98175.84;;;7.53;100.00
7888;BME280;3989;48.810;9.208;2023-11-21T04:35:45;98202.97;;;7.71;100.00
7888;BME280;3989;48.810;9.208;2023-11-21T04:38:11;98192.59;;;7.62;100.00
7888;BME280;3989;48.810;9.208;2023-11-21T04:40:40;98196.56;;;7.58;100.00
7888;BME280;3989;48.810;9.208;2023-11-21T04:43:06;98211.19;;;7.54;100.00
7888;BME280;3989;48.810;9.208;2023-11-21T04:45:33;98191.91;;;7.21;100.00
7888;BME280;3989;48.810;9.208;2023-11-21T04:47:59;98165.50;;;6.97;100.00
7888;BME280;3989;48.810;9.208;2023-11-21T04:50:26;98165.31;;;6.98;100.00
7888;BME280;3989;48.810;9.208;2023-11-21T04:52:53;98172.06;;;7.17;100.00
7888;BME280;3989;48.810;9.208;2023-11-21T04:55:19;98200.50;;;7.39;100.00
7888;BME280;3989;48.810;9.208;2023-11-21T04:57:47;98139.94;;;6.96;100.00
7888;BME280;3989;48.810;9.208;2023-11-21T05:00:14;98144.56;;;7.02;100.00
7888;BME280;3989;48.810;9.208;2023-11-21T05:02:41;98151.06;;;6.99;100.00
7888;BME280;3989;48.810;9.208;2023-11-21T05:05:09;98180.19;;;7.15;100.00
7888;BME280;3989;48.810;9.208;2023-11-21T05:07:36;98179.53;;;7.13;100.00
7888;BME280;3989;48.810;9.208;2023-11-21T05:10:04;98145.66;;;6.84;100.00
7888;BME280;3989;48.810;9.208;2023-11-21T05:12:36;98156.56;;;6.90;100.00
7888;BME280;3989;48.810;9.208;2023-11-21T05:15:06;98217.75;;;7.35;100.00
7888;BME280;3989;48.810;9.208;2023-11-21T05:17:35;98162.34;;;6.93;100.00
7888;BME280;3989;48.810;9.208;2023-11-21T05:20:01;98144.81;;;6.76;100.00
7888;BME280;3989;48.810;9.208;2023-11-21T05:22:29;98226.72;;;7.34;100.00
7888;BME280;3989;48.810;9.208;2023-11-21T05:24:55;98168.16;;;6.97;100.00
7888;BME280;3989;48.810;9.208;2023-11-21T05:27:24;98207.34;;;7.25;100.00
7888;BME280;3989;48.810;9.208;2023-11-21T05:29:51;98244.94;;;7.45;100.00
7888;BME280;3989;48.810;9.208;2023-11-21T05:32:19;98199.53;;;7.24;100.00
7888;BME280;3989;48.810;9.208;2023-11-21T05:34:45;98200.72;;;7.21;100.00
7888;BME280;3989;48.810;9.208;2023-11-21T05:37:12;98229.69;;;7.31;100.00
7888;BME280;3989;48.810;9.208;2023-11-21T05:39:39;98204.88;;;7.16;100.00
7888;BME280;3989;48.810;9.208;2023-11-21T05:42:05;98194.63;;;7.13;100.00
7888;BME280;3989;48.810;9.208;2023-11-21T05:44:34;98235.16;;;7.37;100.00
7888;BME280;3989;48.810;9.208;2023-11-21T05:47:01;98257.22;;;7.46;100.00
7888;BME280;3989;48.810;9.208;2023-11-21T05:49:29;98256.88;;;7.49;100.00
7888;BME280;3989;48.810;9.208;2023-11-21T05:51:56;98225.91;;;7.25;100.00
7888;BME280;3989;48.810;9.208;2023-11-21T05:54:22;98259.03;;;7.37;100.00
7888;BME280;3989;48.810;9.208;2023-11-21T05:56:50;98193.69;;;6.90;100.00
7888;BME280;3989;48.810;9.208;2023-11-21T05:59:16;98195.34;;;6.91;100.00
7888;BME280;3989;48.810;9.208;2023-11-21T06:01:43;98246.16;;;7.18;100.00
7888;BME280;3989;48.810;9.208;2023-11-21T06:04:11;98203.47;;;6.89;100.00
7888;BME280;3989;48.810;9.208;2023-11-21T06:06:39;98259.78;;;7.15;100.00
7888;BME280;3989;48.810;9.208;2023-11-21T06:09:06;98244.25;;;7.04;100.00
7888;BME280;3989;48.810;9.208;2023-11-21T06:11:34;98223.84;;;6.88;100.00
7888;BME280;3989;48.810;9.208;2023-11-21T06:14:01;98268.28;;;7.11;100.00
7888;BME280;3989;48.810;9.208;2023-11-21T06:16:28;98202.84;;;6.71;100.00
7888;BME280;3989;48.810;9.208;2023-11-21T06:18:55;98277.72;;;7.13;100.00
7888;BME280;3989;48.810;9.208;2023-11-21T06:21:21;98276.38;;;7.09;100.00
7888;BME280;3989;48.810;9.208;2023-11-21T06:23:50;98279.88;;;7.10;100.00
7888;BME280;3989;48.810;9.208;2023-11-21T06:26:18;98272.75;;;7.02;100.00
7888;BME280;3989;48.810;9.208;2023-11-21T06:28:45;98291.13;;;7.20;100.00
7888;BME280;3989;48.810;9.208;2023-11-21T06:31:12;98271.88;;;7.18;100.00
7888;BME280;3989;48.810;9.208;2023-11-21T06:33:39;98226.16;;;6.92;100.00
7888;BME280;3989;48.810;9.208;2023-11-21T06:36:07;98257.63;;;7.19;100.00
7888;BME280;3989;48.810;9.208;2023-11-21T06:38:36;98299.69;;;7.46;100.00
7888;BME280;3989;48.810;9.208;2023-11-21T06:41:05;98263.91;;;7.26;100.00
7888;BME280;3989;48.810;9.208;2023-11-21T06:43:32;98302.81;;;7.50;100.00
7888;BME280;3989;48.810;9.208;2023-11-21T06:45:59;98310.28;;;7.54;100.00
7888;BME280;3989;48.810;9.208;2023-11-21T06:48:25;98292.38;;;7.48;100.00
7888;BME280;3989;48.810;9.208;2023-11-21T06:50:52;98301.97;;;7.57;100.00
7888;BME280;3989;48.810;9.208;2023-11-21T06:53:19;98251.81;;;7.23;100.00
7888;BME280;3989;48.810;9.208;2023-11-21T06:55:45;98220.16;;;7.06;100.00
7888;BME280;3989;48.810;9.208;2023-11-21T06:58:13;98269.03;;;7.35;100.00
7888;BME280;3989;48.810;9.208;2023-11-21T07:00:40;98289.06;;;7.46;100.00
7888;BME280;3989;48.810;9.208;2023-11-21T07:03:11;98307.13;;;7.59;100.00
7888;BME280;3989;48.810;9.208;2023-11-21T07:05:38;98326.16;;;7.70;100.00
7888;BME280;3989;48.810;9.208;2023-11-21T07:08:05;98270.69;;;7.36;100.00
7888;BME280;3989;48.810;9.208;2023-11-21T07:10:32;98335.59;;;7.73;100.00
7888;BME280;3989;48.810;9.208;2023-11-21T07:13:00;98333.63;;;7.75;100.00
7888;BME280;3989;48.810;9.208;2023-11-21T07:15:28;98309.44;;;7.54;100.00
7888;BME280;3989;48.810;9.208;2023-11-21T07:17:54;98339.56;;;7.77;100.00
7888;BME280;3989;48.810;9.208;2023-11-21T07:20:21;98343.69;;;7.79;100.00
7888;BME280;3989;48.810;9.208;2023-11-21T07:22:48;98344.38;;;7.81;100.00
7888;BME280;3989;48.810;9.208;2023-11-21T07:25:15;98339.56;;;7.85;100.00
7888;BME280;3989;48.810;9.208;2023-11-21T07:27:42;98350.47;;;7.90;100.00
7888;BME280;3989;48.810;9.208;2023-11-21T07:30:10;98350.81;;;7.87;100.00
7888;BME280;3989;48.810;9.208;2023-11-21T07:32:40;98343.63;;;7.96;100.00
7888;BME280;3989;48.810;9.208;2023-11-21T07:35:07;98355.25;;;8.03;100.00
7888;BME280;3989;48.810;9.208;2023-11-21T07:37:34;98353.41;;;8.03;100.00
7888;BME280;3989;48.810;9.208;2023-11-21T07:40:00;98305.03;;;7.77;100.00
7888;BME280;3989;48.810;9.208;2023-11-21T07:42:28;98363.66;;;8.14;100.00
7888;BME280;3989;48.810;9.208;2023-11-21T07:44:54;98351.25;;;8.07;100.00
7888;BME280;3989;48.810;9.208;2023-11-21T07:47:21;98362.44;;;8.25;100.00
7888;BME280;3989;48.810;9.208;2023-11-21T07:49:50;98371.44;;;8.24;100.00
7888;BME280;3989;48.810;9.208;2023-11-21T07:52:17;98366.78;;;8.18;100.00
7888;BME280;3989;48.810;9.208;2023-11-21T07:54:44;98340.78;;;8.05;100.00
7888;BME280;3989;48.810;9.208;2023-11-21T07:57:11;98376.41;;;8.27;100.00
7888;BME280;3989;48.810;9.208;2023-11-21T07:59:38;98372.59;;;8.29;100.00
7888;BME280;3989;48.810;9.208;2023-11-21T08:02:06;98372.06;;;8.34;100.00
7888;BME280;3989;48.810;9.208;2023-11-21T08:04:32;98348.31;;;8.24;100.00
7888;BME280;3989;48.810;9.208;2023-11-21T08:07:00;98379.28;;;8.48;100.00
7888;BME280;3989;48.810;9.208;2023-11-21T08:09:29;98373.97;;;8.48;100.00
7888;BME280;3989;48.810;9.208;2023-11-21T08:11:55;98382.22;;;8.61;100.00
7888;BME280;3989;48.810;9.208;2023-11-21T08:14:22;98386.81;;;8.67;100.00
7888;BME280;3989;48.810;9.208;2023-11-21T08:16:50;98378.69;;;8.69;100.00
7888;BME280;3989;48.810;9.208;2023-11-21T08:19:17;98389.72;;;8.80;100.00
7888;BME280;3989;48.810;9.208;2023-11-21T08:21:44;98388.06;;;8.79;100.00
7888;BME280;3989;48.810;9.208;2023-11-21T08:24:12;98392.97;;;8.90;100.00
7888;BME280;3989;48.810;9.208;2023-11-21T08:26:39;98394.28;;;8.94;100.00
7888;BME280;3989;48.810;9.208;2023-11-21T08:29:06;98397.25;;;9.00;100.00
7888;BME280;3989;48.810;9.208;2023-11-21T08:31:33;98369.78;;;8.99;100.00
7888;BME280;3989;48.810;9.208;2023-11-21T08:34:00;98385.63;;;9.15;100.00
7888;BME280;3989;48.810;9.208;2023-11-21T08:36:28;98397.59;;;9.34;100.00
7888;BME280;3989;48.810;9.208;2023-11-21T08:38:56;98394.78;;;9.50;100.00
7888;BME280;3989;48.810;9.208;2023-11-21T08:41:24;98400.72;;;9.75;100.00
7888;BME280;3989;48.810;9.208;2023-11-21T08:43:53;98362.50;;;9.68;100.00
7888;BME280;3989;48.810;9.208;2023-11-21T08:46:20;98403.78;;;10.01;100.00
7888;BME280;3989;48.810;9.208;2023-11-21T08:48:47;98403.13;;;10.28;100.00
7888;BME280;3989;48.810;9.208;2023-11-21T08:51:13;98396.31;;;10.26;100.00
7888;BME280;3989;48.810;9.208;2023-11-21T08:53:41;98403.94;;;10.29;100.00
7888;BME280;3989;48.810;9.208;2023-11-21T08:56:12;98411.66;;;10.09;100.00
7888;BME280;3989;48.810;9.208;2023-11-21T08:58:40;98413.13;;;9.97;100.00
7888;BME280;3989;48.810;9.208;2023-11-21T09:01:07;98323.97;;;9.26;100.00
7888;BME280;3989;48.810;9.208;2023-11-21T09:03:34;98421.03;;;9.90;100.00
7888;BME280;3989;48.810;9.208;2023-11-21T09:06:00;98421.31;;;10.10;100.00
7888;BME280;3989;48.810;9.208;2023-11-21T09:08:27;98349.72;;;9.78;100.00
7888;BME280;3989;48.810;9.208;2023-11-21T09:10:54;98412.44;;;10.53;100.00
7888;BME280;3989;48.810;9.208;2023-11-21T09:13:21;98406.03;;;10.48;100.00
7888;BME280;3989;48.810;9.208;2023-11-21T09:15:51;98427.47;;;10.54;100.00
7888;BME280;3989;48.810;9.208;2023-11-21T09:18:18;98419.28;;;10.56;100.00
7888;BME280;3989;48.810;9.208;2023-11-21T09:20:44;98353.00;;;10.09;100.00
7888;BME280;3989;48.810;9.208;2023-11-21T09:23:11;98432.25;;;10.59;100.00
7888;BME280;3989;48.810;9.208;2023-11-21T09:25:38;98431.53;;;10.36;100.00
7888;BME280;3989;48.810;9.208;2023-11-21T09:28:05;98429.50;;;10.52;100.00
7888;BME280;3989;48.810;9.208;2023-11-21T09:30:33;98443.44;;;10.69;100.00
7888;BME280;3989;48.810;9.208;2023-11-21T09:33:01;98435.28;;;10.56;100.00
7888;BME280;3989;48.810;9.208;2023-11-21T09:35:28;98423.66;;;10.64;100.00
7888;BME280;3989;48.810;9.208;2023-11-21T09:37:54;98426.09;;;10.44;100.00
7888;BME280;3989;48.810;9.208;2023-11-21T09:40:22;98447.34;;;10.52;100.00
7888;BME280;3989;48.810;9.208;2023-11-21T09:42:54;98437.28;;;10.54;100.00
7888;BME280;3989;48.810;9.208;2023-11-21T09:45:25;98426.91;;;10.44;100.00
7888;BME280;3989;48.810;9.208;2023-11-21T09:47:52;98449.47;;;10.42;100.00
7888;BME280;3989;48.810;9.208;2023-11-21T09:50:22;98402.78;;;10.17;100.00
7888;BME280;3989;48.810;9.208;2023-11-21T09:52:55;98442.75;;;10.46;100.00
7888;BME280;3989;48.810;9.208;2023-11-21T09:55:24;98453.69;;;10.51;100.00
7888;BME280;3989;48.810;9.208;2023-11-21T09:57:54;98461.69;;;10.22;100.00
7888;BME280;3989;48.810;9.208;2023-11-21T10:00:22;98449.34;;;10.06;100.00
7888;BME280;3989;48.810;9.208;2023-11-21T10:02:50;98465.66;;;10.11;100.00
7888;BME280;3989;48.810;9.208;2023-11-21T10:05:18;98457.44;;;9.98;100.00
7888;BME280;3989;48.810;9.208;2023-11-21T10:07:49;98458.63;;;9.81;100.00
7888;BME280;3989;48.810;9.208;2023-11-21T10:10:18;98459.97;;;9.77;100.00
7888;BME280;3989;48.810;9.208;2023-11-21T10:12:49;98462.00;;;9.75;100.00
7888;BME280;3989;48.810;9.208;2023-11-21T10:15:21;98464.34;;;9.55;100.00
7888;BME280;3989;48.810;9.208;2023-11-21T10:17:49;98427.63;;;9.28;100.00
7888;BME280;3989;48.810;9.208;2023-11-21T10:20:16;98395.69;;;9.05;100.00
7888;BME280;3989;48.810;9.208;2023-11-21T10:22:43;98430.16;;;9.21;100.00
7888;BME280;3989;48.810;9.208;2023-11-21T10:25:12;98435.59;;;9.28;100.00
7888;BME280;3989;48.810;9.208;2023-11-21T10:27:40;98404.97;;;9.09;100.00
7888;BME280;3989;48.810;9.208;2023-11-21T10:30:08;98467.16;;;9.39;100.00
7888;BME280;3989;48.810;9.208;2023-11-21T10:32:37;98457.81;;;9.20;100.00
7888;BME280;3989;48.810;9.208;2023-11-21T10:35:06;98466.19;;;9.32;100.00
7888;BME280;3989;48.810;9.208;2023-11-21T10:37:35;98460.97;;;9.24;100.00
7888;BME280;3989;48.810;9.208;2023-11-21T10:40:02;98469.94;;;9.45;100.00
7888;BME280;3989;48.810;9.208;2023-11-21T10:42:31;98468.81;;;9.40;100.00
7888;BME280;3989;48.810;9.208;2023-11-21T10:44:58;98475.38;;;9.67;100.00
7888;BME280;3989;48.810;9.208;2023-11-21T10:47:26;98406.72;;;9.39;100.00
7888;BME280;3989;48.810;9.208;2023-11-21T10:49:53;98469.84;;;9.91;100.00
7888;BME280;3989;48.810;9.208;2023-11-21T10:52:20;98471.41;;;9.85;100.00
7888;BME280;3989;48.810;9.208;2023-11-21T10:54:46;98479.31;;;10.08;100.00
7888;BME280;3989;48.810;9.208;2023-11-21T10:57:16;98418.53;;;9.89;100.00
7888;BME280;3989;48.810;9.208;2023-11-21T10:59:46;98477.41;;;10.61;100.00
7888;BME280;3989;48.810;9.208;2023-11-21T11:02:21;98484.28;;;10.70;100.00
7888;BME280;3989;48.810;9.208;2023-11-21T11:04:52;98412.41;;;10.32;100.00
7888;BME280;3989;48.810;9.208;2023-11-21T11:07:21;98479.59;;;10.72;100.00
7888;BME280;3989;48.810;9.208;2023-11-21T11:09:49;98395.84;;;10.08;100.00
7888;BME280;3989;48.810;9.208;2023-11-21T11:12:16;98488.75;;;10.63;100.00
7888;BME280;3989;48.810;9.208;2023-11-21T11:14:46;98477.16;;;10.56;100.00
7888;BME280;3989;48.810;9.208;2023-11-21T11:17:14;98465.09;;;10.60;100.00
7888;BME280;3989;48.810;9.208;2023-11-21T11:19:41;98449.22;;;10.73;100.00
7888;BME280;3989;48.810;9.208;2023-11-21T11:22:19;98411.81;;;10.51;100.00
7888;BME280;3989;48.810;9.208;2023-11-21T11:25:06;98415.78;;;10.56;100.00
7888;BME280;3989;48.810;9.208;2023-11-21T11:27:46;98442.66;;;10.90;100.00
7888;BME280;3989;48.810;9.208;2023-11-21T11:30:26;98475.66;;;11.03;100.00
7888;BME280;3989;48.810;9.208;2023-11-21T11:33:05;98456.06;;;10.96;100.00
7888;BME280;3989;48.810;9.208;2023-11-21T11:35:42;98462.25;;;11.18;100.00
7888;BME280;3989;48.810;9.208;2023-11-21T11:38:13;98449.97;;;11.02;100.00
7888;BME280;3989;48.810;9.208;2023-11-21T11:40:40;98481.72;;;11.54;100.00
7888;BME280;3989;48.810;9.208;2023-11-21T11:43:07;98482.72;;;11.53;100.00
7888;BME280;3989;48.810;9.208;2023-11-21T11:45:35;98487.13;;;11.19;100.00
7888;BME280;3989;48.810;9.208;2023-11-21T11:48:06;98483.91;;;11.08;100.00
7888;BME280;3989;48.810;9.208;2023-11-21T11:50:33;98491.69;;;11.03;100.00
7888;BME280;3989;48.810;9.208;2023-11-21T11:53:12;98488.38;;;11.01;100.00
7888;BME280;3989;48.810;9.208;2023-11-21T11:55:39;98484.50;;;10.68;100.00
7888;BME280;3989;48.810;9.208;2023-11-21T11:58:07;98475.34;;;10.77;100.00
7888;BME280;3989;48.810;9.208;2023-11-21T12:00:35;98465.19;;;10.51;100.00
7888;BME280;3989;48.810;9.208;2023-11-21T12:03:07;98470.97;;;10.40;100.00
7888;BME280;3989;48.810;9.208;2023-11-21T12:05:36;98488.66;;;10.56;100.00
7888;BME280;3989;48.810;9.208;2023-11-21T12:08:05;98489.47;;;10.42;100.00
7888;BME280;3989;48.810;9.208;2023-11-21T12:10:34;98492.59;;;10.16;100.00
7888;BME280;3989;48.810;9.208;2023-11-21T12:13:02;98475.44;;;9.96;100.00
7888;BME280;3989;48.810;9.208;2023-11-21T12:15:30;98484.63;;;9.79;100.00
7888;BME280;3989;48.810;9.208;2023-11-21T12:17:59;98481.03;;;9.86;100.00
7888;BME280;3989;48.810;9.208;2023-11-21T12:20:26;98495.84;;;9.89;100.00
7888;BME280;3989;48.810;9.208;2023-11-21T12:22:55;98492.72;;;9.85;100.00
7888;BME280;3989;48.810;9.208;2023-11-21T12:25:23;98485.53;;;9.86;100.00
7888;BME280;3989;48.810;9.208;2023-11-21T12:27:54;98492.38;;;9.88;100.00
7888;BME280;3989;48.810;9.208;2023-11-21T12:30:22;98455.28;;;9.64;100.00
7888;BME280;3989;48.810;9.208;2023-11-21T12:32:50;98495.25;;;10.01;100.00
7888;BME280;3989;48.810;9.208;2023-11-21T12:35:20;98411.91;;;9.56;100.00
7888;BME280;3989;48.810;9.208;2023-11-21T12:37:47;98417.97;;;9.64;100.00
7888;BME280;3989;48.810;9.208;2023-11-21T12:40:15;98497.34;;;10.06;100.00
7888;BME280;3989;48.810;9.208;2023-11-21T12:42:44;98451.00;;;9.78;100.00
7888;BME280;3989;48.810;9.208;2023-11-21T12:45:19;98507.28;;;9.97;100.00
7888;BME280;3989;48.810;9.208;2023-11-21T12:47:47;98511.84;;;10.26;100.00
7888;BME280;3989;48.810;9.208;2023-11-21T12:50:14;98505.31;;;10.43;100.00
7888;BME280;3989;48.810;9.208;2023-11-21T12:52:44;98512.56;;;10.49;100.00
7888;BME280;3989;48.810;9.208;2023-11-21T12:55:16;98510.69;;;10.79;100.00
7888;BME280;3989;48.810;9.208;2023-11-21T12:57:44;98506.38;;;10.64;100.00
7888;BME280;3989;48.810;9.208;2023-11-21T13:00:13;98486.44;;;10.45;100.00
7888;BME280;3989;48.810;9.208;2023-11-21T13:02:52;98505.41;;;10.35;100.00
7888;BME280;3989;48.810;9.208;2023-11-21T13:05:26;98493.25;;;10.33;100.00
7888;BME280;3989;48.810;9.208;2023-11-21T13:07:55;98445.03;;;9.90;100.00
7888;BME280;3989;48.810;9.208;2023-11-21T13:10:24;98513.09;;;10.16;100.00
7888;BME280;3989;48.810;9.208;2023-11-21T13:12:55;98476.47;;;9.95;100.00
7888;BME280;3989;48.810;9.208;2023-11-21T13:15:23;98514.53;;;10.03;100.00
7888;BME280;3989;48.810;9.208;2023-11-21T13:17:50;98490.78;;;9.57;100.00
7888;BME280;3989;48.810;9.208;2023-11-21T13:20:18;98506.34;;;9.30;100.00
7888;BME280;3989;48.810;9.208;2023-11-21T13:22:48;98475.88;;;8.79;100.00
7888;BME280;3989;48.810;9.208;2023-11-21T13:25:18;98471.88;;;8.53;100.00
7888;BME280;3989;48.810;9.208;2023-11-21T13:27:46;98516.03;;;8.62;100.00
7888;BME280;3989;48.810;9.208;2023-11-21T13:30:13;98534.31;;;8.65;100.00
7888;BME280;3989;48.810;9.208;2023-11-21T13:32:45;98502.50;;;8.32;100.00
7888;BME280;3989;48.810;9.208;2023-11-21T13:35:12;98540.47;;;8.57;100.00
7888;BME280;3989;48.810;9.208;2023-11-21T13:37:47;98429.53;;;7.88;100.00
7888;BME280;3989;48.810;9.208;2023-11-21T13:40:20;98469.50;;;8.11;100.00
7888;BME280;3989;48.810;9.208;2023-11-21T13:42:49;98482.06;;;8.25;100.00
7888;BME280;3989;48.810;9.208;2023-11-21T13:45:19;98456.38;;;8.09;100.00
7888;BME280;3989;48.810;9.208;2023-11-21T13:47:46;98501.00;;;8.38;100.00
7888;BME280;3989;48.810;9.208;2023-11-21T13:50:12;98517.72;;;8.55;100.00
7888;BME280;3989;48.810;9.208;2023-11-21T13:52:47;98483.91;;;8.32;100.00
7888;BME280;3989;48.810;9.208;2023-11-21T13:55:14;98541.50;;;8.56;100.00
7888;BME280;3989;48.810;9.208;2023-11-21T13:57:43;98548.16;;;8.52;100.00
7888;BME280;3989;48.810;9.208;2023-11-21T14:00:13;98519.44;;;8.39;100.00